Time;durP1;ratioP1;P1;durP2;ratioP2;P2;SDS_P1;SDS_P2;PMS_P1;PMS_P2;Temp;Humidity;BMP_temperature;BMP_pressure;BME280_temperature;BME280_humidity;BME280_pressure;Samples;Min_cycle;Max_cycle;Signal;HPM_P1;HPM_P2
2021/09/30 00:00:41;;;;;;;21.50;2.30;;;;;;;;;;4948073;28;20038;-70
2021/09/30 00:03:07;;;;;;;9.80;2.95;;;;;;;;;;4953892;28;20027;-70
2021/09/30 00:05:33;;;;;;;11.82;2.55;;;;;;;;;;4949522;29;20027;-69
2021/09/30 00:07:59;;;;;;;12.55;1.88;;;;;;;;;;4951355;28;20069;-69
2021/09/30 00:10:26;;;;;;;10.88;2.92;;;;;;;;;;4952389;28;20027;-69
2021/09/30 00:13:38;;;;;;;13.45;2.17;;;;;;;;;;4955322;28;20110;-68
2021/09/30 00:16:19;;;;;;;19.20;2.38;;;;;;;;;;4950506;28;20047;-69
2021/09/30 00:32:43;;;;;;;15.77;2.33;;;;;;;;;;4951462;28;20118;-69
2021/09/30 00:40:38;;;;;;;11.77;2.30;;;;;;;;;;4954972;28;20042;-69
2021/09/30 00:46:20;;;;;;;13.82;2.58;;;;;;;;;;4959960;28;20217;-68
2021/09/30 00:51:29;;;;;;;11.27;1.52;;;;;;;;;;4957453;28;20565;-68
2021/09/30 03:00:31;;;;;;;16.60;2.20;;;;;;;;;;4950739;28;20034;-68
2021/09/30 03:02:58;;;;;;;11.20;2.00;;;;;;;;;;4943203;28;20024;-68
2021/09/30 03:05:24;;;;;;;12.38;2.30;;;;;;;;;;4941578;28;20028;-68
2021/09/30 03:07:52;;;;;;;11.98;2.60;;;;;;;;;;4954491;28;20028;-69
2021/09/30 03:10:19;;;;;;;16.77;3.92;;;;;;;;;;4951015;28;20032;-69
2021/09/30 03:12:45;;;;;;;10.20;1.83;;;;;;;;;;4954933;28;20075;-68
2021/09/30 03:17:54;;;;;;;16.55;2.20;;;;;;;;;;4955947;28;20035;-68
2021/09/30 03:23:07;;;;;;;11.25;2.25;;;;;;;;;;4956676;28;20059;-68
2021/09/30 03:25:34;;;;;;;14.25;2.25;;;;;;;;;;4948011;28;20028;-68
2021/09/30 03:28:01;;;;;;;7.47;1.90;;;;;;;;;;4946474;29;20067;-69
2021/09/30 03:30:28;;;;;;;11.63;2.25;;;;;;;;;;4948297;28;20026;-68
2021/09/30 03:32:54;;;;;;;19.15;2.28;;;;;;;;;;4952961;28;20397;-68
2021/09/30 03:35:20;;;;;;;16.42;2.30;;;;;;;;;;4948710;28;20070;-68
2021/09/30 03:37:47;;;;;;;11.15;1.90;;;;;;;;;;4952530;29;20054;-68
2021/09/30 03:40:13;;;;;;;13.60;1.92;;;;;;;;;;4956911;28;20473;-68
2021/09/30 03:42:39;;;;;;;11.63;2.30;;;;;;;;;;4956585;28;20023;-68
2021/09/30 03:45:06;;;;;;;8.82;2.33;;;;;;;;;;4943873;29;20031;-68
2021/09/30 03:47:32;;;;;;;13.73;2.03;;;;;;;;;;4954331;28;20043;-69
2021/09/30 03:49:58;;;;;;;12.77;2.35;;;;;;;;;;4947485;28;20685;-68
2021/09/30 04:00:04;;;;;;;12.38;1.88;;;;;;;;;;4952750;28;20031;-69
2021/09/30 04:02:30;;;;;;;20.67;4.43;;;;;;;;;;4953623;28;20524;-68
2021/09/30 04:04:56;;;;;;;12.23;2.05;;;;;;;;;;4950102;28;20047;-68
2021/09/30 04:07:22;;;;;;;10.90;2.45;;;;;;;;;;4957925;28;20035;-68
2021/09/30 04:09:48;;;;;;;9.00;1.83;;;;;;;;;;4952942;28;20058;-68
2021/09/30 04:12:14;;;;;;;10.75;2.17;;;;;;;;;;4955822;28;20032;-68
2021/09/30 04:14:41;;;;;;;13.68;2.28;;;;;;;;;;4945173;29;20407;-69
2021/09/30 04:17:08;;;;;;;10.73;1.75;;;;;;;;;;4967306;28;20532;-68
2021/09/30 04:19:34;;;;;;;8.30;1.65;;;;;;;;;;4951696;28;20023;-69
2021/09/30 04:22:00;;;;;;;11.25;2.00;;;;;;;;;;4959955;28;20035;-68
2021/09/30 04:24:26;;;;;;;10.35;2.78;;;;;;;;;;4946501;28;20559;-68
2021/09/30 04:26:55;;;;;;;10.98;1.85;;;;;;;;;;4943285;29;20036;-68
2021/09/30 04:29:21;;;;;;;9.57;1.80;;;;;;;;;;4954112;28;20035;-68
2021/09/30 04:31:47;;;;;;;15.15;2.85;;;;;;;;;;4955882;28;20047;-68
2021/09/30 04:34:14;;;;;;;14.90;2.47;;;;;;;;;;4945374;29;20061;-68
2021/09/30 04:36:40;;;;;;;11.10;2.05;;;;;;;;;;4956454;28;20031;-69
2021/09/30 04:39:06;;;;;;;13.60;1.70;;;;;;;;;;4959944;28;20116;-67
2021/09/30 04:41:33;;;;;;;8.85;2.40;;;;;;;;;;4948787;28;20051;-68
2021/09/30 04:43:59;;;;;;;13.70;2.22;;;;;;;;;;4949526;28;20038;-68
2021/09/30 04:46:25;;;;;;;11.75;1.60;;;;;;;;;;4949109;28;20757;-69
2021/09/30 04:48:51;;;;;;;11.65;2.15;;;;;;;;;;4952782;28;20094;-68
2021/09/30 04:51:18;;;;;;;9.05;2.35;;;;;;;;;;4954908;28;20022;-68
2021/09/30 04:53:44;;;;;;;10.27;1.83;;;;;;;;;;4954891;28;20039;-68
2021/09/30 04:56:11;;;;;;;11.32;2.10;;;;;;;;;;4948657;28;20027;-68
2021/09/30 04:58:38;;;;;;;10.77;2.00;;;;;;;;;;4949692;28;20068;-68
2021/09/30 05:01:04;;;;;;;8.75;1.90;;;;;;;;;;4949143;28;20027;-68
2021/09/30 05:03:31;;;;;;;10.90;1.40;;;;;;;;;;4950696;28;20027;-69
2021/09/30 05:05:57;;;;;;;14.95;1.90;;;;;;;;;;4941724;29;20035;-68
2021/09/30 05:08:23;;;;;;;11.02;2.25;;;;;;;;;;4948128;28;20031;-68
2021/09/30 05:10:50;;;;;;;13.80;2.30;;;;;;;;;;4945865;28;20036;-68
2021/09/30 05:13:19;;;;;;;9.32;2.05;;;;;;;;;;4948967;29;20439;-68
2021/09/30 05:15:45;;;;;;;10.18;1.70;;;;;;;;;;4961497;28;20058;-68
2021/09/30 05:18:12;;;;;;;14.27;2.20;;;;;;;;;;4950941;28;20637;-68
2021/09/30 05:20:38;;;;;;;9.90;1.73;;;;;;;;;;4945062;28;20405;-68
2021/09/30 05:23:04;;;;;;;12.27;2.33;;;;;;;;;;4950321;29;20023;-69
2021/09/30 05:27:58;;;;;;;14.73;2.25;;;;;;;;;;5021647;23;20055;-69
2021/09/30 05:30:25;;;;;;;10.13;1.85;;;;;;;;;;4949939;28;20036;-69
2021/09/30 05:32:51;;;;;;;13.45;1.67;;;;;;;;;;4950427;29;20049;-72
2021/09/30 05:35:17;;;;;;;15.75;1.80;;;;;;;;;;4948853;28;20394;-69
2021/09/30 05:37:44;;;;;;;9.77;1.70;;;;;;;;;;4953505;28;20176;-69
2021/09/30 05:40:14;;;;;;;17.95;2.75;;;;;;;;;;4955420;28;20444;-69
2021/09/30 05:42:41;;;;;;;8.55;1.83;;;;;;;;;;4953209;28;20501;-69
2021/09/30 05:45:08;;;;;;;17.55;2.53;;;;;;;;;;4950171;28;20106;-69
2021/09/30 05:47:34;;;;;;;8.93;1.52;;;;;;;;;;4945549;28;20383;-69
2021/09/30 05:50:00;;;;;;;17.48;1.90;;;;;;;;;;4951388;28;20052;-69
2021/09/30 05:52:26;;;;;;;11.13;1.52;;;;;;;;;;4953178;28;20038;-69
2021/09/30 05:54:52;;;;;;;10.90;1.85;;;;;;;;;;4949311;28;20089;-69
2021/09/30 05:57:18;;;;;;;8.48;2.00;;;;;;;;;;4949768;28;20048;-69
2021/09/30 05:59:45;;;;;;;8.00;1.60;;;;;;;;;;4952759;28;20027;-69
2021/09/30 06:10:32;;;;;;;9.02;2.17;;;;;;;;;;4945800;29;20038;-69
2021/09/30 06:13:02;;;;;;;19.40;2.92;;;;;;;;;;4952367;28;20031;-69
2021/09/30 06:15:33;;;;;;;14.50;2.30;;;;;;;;;;4949744;28;20278;-70
2021/09/30 06:18:01;;;;;;;13.30;2.65;;;;;;;;;;4952281;28;20425;-69
2021/09/30 06:20:27;;;;;;;11.50;2.70;;;;;;;;;;4950362;28;20031;-69
2021/09/30 06:22:53;;;;;;;18.05;2.30;;;;;;;;;;4952890;28;20035;-69
2021/09/30 06:25:19;;;;;;;13.93;2.45;;;;;;;;;;4948546;28;20114;-69
2021/09/30 06:27:45;;;;;;;17.30;2.40;;;;;;;;;;4952728;28;20055;-69
2021/09/30 06:30:11;;;;;;;13.30;2.22;;;;;;;;;;4951344;28;20059;-69
2021/09/30 06:32:38;;;;;;;11.55;1.85;;;;;;;;;;4952477;28;20082;-69
2021/09/30 06:35:04;;;;;;;10.93;2.25;;;;;;;;;;4947619;28;20047;-69
2021/09/30 06:37:31;;;;;;;12.65;2.17;;;;;;;;;;4952016;28;20031;-69
2021/09/30 06:39:57;;;;;;;13.55;2.20;;;;;;;;;;4950018;28;20044;-69
2021/09/30 06:42:23;;;;;;;12.60;2.53;;;;;;;;;;4951148;28;20027;-69
2021/09/30 06:44:49;;;;;;;8.05;2.10;;;;;;;;;;4948945;28;20517;-71
2021/09/30 06:47:15;;;;;;;14.05;2.78;;;;;;;;;;4952119;28;20039;-70
2021/09/30 06:49:42;;;;;;;13.32;3.17;;;;;;;;;;4952124;28;20031;-70
2021/09/30 06:52:08;;;;;;;10.63;2.47;;;;;;;;;;4949821;28;20042;-69
2021/09/30 06:54:34;;;;;;;18.83;2.65;;;;;;;;;;4941728;29;20031;-69
2021/09/30 06:57:00;;;;;;;12.48;2.90;;;;;;;;;;4940155;28;20036;-70
2021/09/30 06:59:33;;;;;;;11.98;2.50;;;;;;;;;;4944131;29;20114;-69
2021/09/30 07:02:04;;;;;;;10.15;2.10;;;;;;;;;;4951784;28;20091;-69
2021/09/30 07:04:32;;;;;;;13.02;2.08;;;;;;;;;;4948884;28;20236;-69
2021/09/30 07:06:58;;;;;;;12.50;1.90;;;;;;;;;;4950471;28;20098;-69
2021/09/30 07:09:24;;;;;;;11.30;2.30;;;;;;;;;;4952343;28;20035;-69
2021/09/30 07:11:50;;;;;;;10.05;1.75;;;;;;;;;;4952525;28;20036;-70
2021/09/30 07:14:16;;;;;;;15.55;2.80;;;;;;;;;;4941008;28;20075;-69
2021/09/30 07:16:42;;;;;;;12.20;1.92;;;;;;;;;;4951916;28;20134;-72
2021/09/30 07:19:08;;;;;;;7.80;2.15;;;;;;;;;;4948106;28;20020;-70
2021/09/30 07:21:35;;;;;;;10.32;1.90;;;;;;;;;;4945786;28;20031;-69
2021/09/30 07:24:01;;;;;;;9.68;1.70;;;;;;;;;;4948457;29;20032;-70
2021/09/30 07:26:27;;;;;;;8.30;1.70;;;;;;;;;;4950001;28;20031;-72
2021/09/30 07:28:53;;;;;;;7.57;1.67;;;;;;;;;;4942350;28;20028;-70
2021/09/30 07:31:20;;;;;;;9.55;1.70;;;;;;;;;;4944015;28;20023;-72
2021/09/30 07:33:46;;;;;;;8.13;1.73;;;;;;;;;;4944136;28;20042;-69
2021/09/30 07:36:13;;;;;;;9.38;1.75;;;;;;;;;;4947168;28;20023;-70
2021/09/30 07:38:40;;;;;;;10.93;1.70;;;;;;;;;;4951640;28;20058;-69
2021/09/30 07:41:06;;;;;;;8.52;1.60;;;;;;;;;;4950048;28;20505;-70
2021/09/30 07:43:32;;;;;;;11.80;1.90;;;;;;;;;;4943899;28;20552;-69
2021/09/30 07:45:58;;;;;;;6.65;1.60;;;;;;;;;;4940838;28;20253;-70
2021/09/30 07:48:24;;;;;;;9.15;1.58;;;;;;;;;;4950917;28;20062;-70
2021/09/30 07:50:51;;;;;;;8.65;1.67;;;;;;;;;;4950771;28;20031;-69
2021/09/30 07:53:17;;;;;;;8.90;2.13;;;;;;;;;;4948387;28;20023;-70
2021/09/30 07:55:43;;;;;;;10.73;1.92;;;;;;;;;;4944232;29;20032;-69
2021/09/30 07:58:09;;;;;;;7.63;1.48;;;;;;;;;;4943385;28;20050;-71
2021/09/30 08:00:39;;;;;;;14.00;2.10;;;;;;;;;;4951716;28;20046;-69
2021/09/30 08:03:05;;;;;;;9.38;1.95;;;;;;;;;;4951132;28;20070;-70
2021/09/30 08:05:35;;;;;;;6.90;1.90;;;;;;;;;;4942096;28;20019;-69
2021/09/30 08:08:09;;;;;;;9.35;2.30;;;;;;;;;;4943689;28;20028;-71
2021/09/30 08:10:35;;;;;;;8.90;2.30;;;;;;;;;;4945873;29;20027;-69
2021/09/30 08:13:01;;;;;;;13.52;1.80;;;;;;;;;;4951011;28;20042;-70
2021/09/30 08:15:28;;;;;;;9.48;1.83;;;;;;;;;;4940488;29;20122;-71
2021/09/30 08:17:54;;;;;;;13.07;2.08;;;;;;;;;;4946339;28;20035;-70
2021/09/30 08:20:20;;;;;;;7.32;1.83;;;;;;;;;;4946062;28;20085;-75
2021/09/30 08:22:47;;;;;;;9.73;2.20;;;;;;;;;;4954672;28;20459;-71
2021/09/30 08:25:13;;;;;;;7.88;1.85;;;;;;;;;;4948892;28;20042;-69
2021/09/30 08:27:39;;;;;;;3.70;1.30;;;;;;;;;;4952424;29;20054;-70
2021/09/30 08:30:06;;;;;;;5.43;1.48;;;;;;;;;;4953805;28;20035;-69
2021/09/30 08:32:32;;;;;;;9.73;1.50;;;;;;;;;;4954529;28;20493;-69
2021/09/30 08:34:58;;;;;;;7.32;1.33;;;;;;;;;;4950438;28;20071;-69
2021/09/30 08:37:24;;;;;;;10.85;1.70;;;;;;;;;;4953893;28;20026;-70
2021/09/30 08:39:50;;;;;;;9.35;1.95;;;;;;;;;;4954640;28;20422;-69
2021/09/30 08:42:16;;;;;;;9.25;1.70;;;;;;;;;;4949061;28;20406;-73
2021/09/30 08:44:43;;;;;;;8.13;1.98;;;;;;;;;;4969042;28;20031;-69
2021/09/30 08:47:09;;;;;;;11.32;2.25;;;;;;;;;;4952711;29;20070;-69
2021/09/30 08:49:35;;;;;;;12.73;1.90;;;;;;;;;;4954547;28;20074;-70
2021/09/30 08:52:01;;;;;;;10.75;1.83;;;;;;;;;;4952907;28;20410;-69
2021/09/30 08:54:27;;;;;;;10.13;2.17;;;;;;;;;;4951513;28;20232;-69
2021/09/30 08:56:53;;;;;;;7.55;1.65;;;;;;;;;;4953205;28;20058;-68
2021/09/30 08:59:24;;;;;;;14.60;2.17;;;;;;;;;;4954582;28;20038;-69
2021/09/30 09:02:08;;;;;;;15.65;2.65;;;;;;;;;;4952583;28;20054;-70
2021/09/30 09:04:34;;;;;;;7.57;2.40;;;;;;;;;;4945240;28;20090;-70
2021/09/30 09:07:05;;;;;;;10.15;2.20;;;;;;;;;;4952643;28;20031;-69
2021/09/30 09:09:31;;;;;;;7.30;2.05;;;;;;;;;;4954072;28;20456;-69
2021/09/30 09:12:03;;;;;;;8.73;1.98;;;;;;;;;;4953633;28;20174;-69
2021/09/30 09:14:30;;;;;;;12.43;1.83;;;;;;;;;;4950422;28;20498;-71
2021/09/30 09:16:58;;;;;;;13.02;2.50;;;;;;;;;;4945085;28;20054;-69
2021/09/30 09:19:30;;;;;;;11.73;2.40;;;;;;;;;;4946643;29;20035;-70
2021/09/30 09:21:56;;;;;;;14.85;3.03;;;;;;;;;;4952433;28;20023;-69
2021/09/30 09:24:22;;;;;;;12.13;2.20;;;;;;;;;;4951011;28;20209;-69
2021/09/30 09:26:48;;;;;;;9.50;2.60;;;;;;;;;;4953609;28;20070;-69
2021/09/30 09:29:15;;;;;;;12.70;2.30;;;;;;;;;;4952555;28;20062;-69
2021/09/30 09:31:48;;;;;;;10.55;1.70;;;;;;;;;;4953475;28;20038;-70
2021/09/30 09:34:19;;;;;;;12.30;2.25;;;;;;;;;;4950533;28;20046;-70
2021/09/30 09:36:49;;;;;;;10.20;2.03;;;;;;;;;;4952321;28;20036;-69
2021/09/30 09:39:16;;;;;;;10.07;2.83;;;;;;;;;;4951448;28;20023;-70
2021/09/30 09:41:43;;;;;;;8.80;1.95;;;;;;;;;;4953436;28;20031;-69
2021/09/30 09:44:09;;;;;;;14.23;2.20;;;;;;;;;;4951007;28;20035;-69
2021/09/30 09:46:36;;;;;;;9.80;1.88;;;;;;;;;;4952621;28;20022;-69
2021/09/30 09:49:04;;;;;;;8.75;1.95;;;;;;;;;;4952933;28;20413;-68
2021/09/30 09:51:57;;;;;;;7.18;1.65;;;;;;;;;;4952521;28;20103;-68
2021/09/30 09:54:29;;;;;;;10.48;2.00;;;;;;;;;;4948970;29;20438;-68
2021/09/30 09:57:09;;;;;;;10.68;1.38;;;;;;;;;;4952582;28;20404;-69
2021/09/30 09:59:41;;;;;;;9.98;2.75;;;;;;;;;;4952982;28;20438;-68
2021/09/30 10:02:07;;;;;;;6.07;1.10;;;;;;;;;;4950904;28;20027;-68
2021/09/30 10:04:33;;;;;;;7.15;1.35;;;;;;;;;;4950331;28;20324;-68
2021/09/30 10:06:59;;;;;;;7.28;1.45;;;;;;;;;;4951745;28;20489;-69
2021/09/30 10:09:25;;;;;;;11.48;1.77;;;;;;;;;;4945026;28;20570;-69
2021/09/30 10:11:51;;;;;;;9.90;1.58;;;;;;;;;;4952949;28;20127;-69
2021/09/30 10:14:18;;;;;;;7.38;1.67;;;;;;;;;;4950516;28;20023;-69
2021/09/30 10:16:49;;;;;;;11.82;1.95;;;;;;;;;;4952642;28;20039;-69
2021/09/30 10:19:17;;;;;;;10.77;2.20;;;;;;;;;;4952598;28;20111;-69
2021/09/30 10:21:43;;;;;;;13.60;2.15;;;;;;;;;;4950362;28;20046;-70
2021/09/30 10:24:19;;;;;;;6.72;1.63;;;;;;;;;;4950515;28;20035;-69
2021/09/30 10:26:51;;;;;;;9.82;1.80;;;;;;;;;;4948354;28;20031;-69
2021/09/30 10:29:36;;;;;;;10.52;1.80;;;;;;;;;;4952166;28;20051;-69
2021/09/30 10:32:02;;;;;;;9.68;1.65;;;;;;;;;;4952161;28;20056;-70
2021/09/30 10:34:33;;;;;;;9.32;1.50;;;;;;;;;;4941741;28;20332;-69
2021/09/30 10:37:18;;;;;;;12.57;1.65;;;;;;;;;;4950913;28;20482;-69
2021/09/30 10:39:48;;;;;;;8.55;1.80;;;;;;;;;;4951189;28;20039;-68
2021/09/30 10:42:32;;;;;;;11.32;2.53;;;;;;;;;;4948979;28;20028;-69
2021/09/30 10:45:12;;;;;;;11.35;1.80;;;;;;;;;;4946404;29;20031;-69
2021/09/30 10:47:38;;;;;;;9.70;1.90;;;;;;;;;;4951018;28;20049;-69
2021/09/30 10:50:04;;;;;;;16.98;2.88;;;;;;;;;;4944885;28;20514;-69
2021/09/30 10:52:35;;;;;;;7.88;1.73;;;;;;;;;;4939308;28;20028;-70
2021/09/30 10:55:05;;;;;;;5.40;1.60;;;;;;;;;;4946762;29;20039;-68
2021/09/30 10:57:37;;;;;;;12.38;2.13;;;;;;;;;;4952015;28;20023;-68
2021/09/30 11:00:24;;;;;;;7.72;2.33;;;;;;;;;;4951310;28;20030;-68
2021/09/30 11:03:02;;;;;;;6.63;1.60;;;;;;;;;;4952110;29;20035;-69
2021/09/30 11:05:32;;;;;;;6.85;1.55;;;;;;;;;;4948685;28;20367;-72
2021/09/30 11:08:17;;;;;;;8.50;1.60;;;;;;;;;;4949461;28;20042;-69
2021/09/30 11:11:11;;;;;;;6.63;1.23;;;;;;;;;;4946309;28;20043;-70
2021/09/30 11:13:38;;;;;;;14.60;1.90;;;;;;;;;;4941829;29;20026;-69
2021/09/30 11:16:07;;;;;;;8.32;2.42;;;;;;;;;;4948087;28;20544;-69
2021/09/30 11:18:50;;;;;;;9.88;2.03;;;;;;;;;;4950767;28;20058;-70
2021/09/30 11:21:31;;;;;;;9.15;2.10;;;;;;;;;;4946698;28;20019;-70
2021/09/30 11:24:02;;;;;;;12.85;2.67;;;;;;;;;;4939345;29;20031;-70
2021/09/30 11:26:32;;;;;;;10.88;2.20;;;;;;;;;;4942004;28;20375;-69
2021/09/30 11:29:18;;;;;;;10.60;2.40;;;;;;;;;;4950447;28;20047;-71
2021/09/30 11:31:44;;;;;;;11.20;2.40;;;;;;;;;;4947988;29;20035;-69
2021/09/30 11:34:17;;;;;;;11.85;2.78;;;;;;;;;;4949322;28;20366;-71
2021/09/30 11:36:43;;;;;;;9.25;2.80;;;;;;;;;;4951120;28;20096;-69
2021/09/30 11:39:10;;;;;;;8.68;2.58;;;;;;;;;;4951716;28;20035;-69
2021/09/30 11:41:37;;;;;;;8.77;2.90;;;;;;;;;;4945955;28;20078;-71
2021/09/30 11:44:03;;;;;;;12.02;2.30;;;;;;;;;;4949853;28;20024;-71
2021/09/30 11:46:31;;;;;;;10.60;2.60;;;;;;;;;;4950112;28;20034;-69
2021/09/30 11:49:00;;;;;;;7.90;2.05;;;;;;;;;;4951609;28;20023;-70
2021/09/30 11:51:42;;;;;;;14.55;3.33;;;;;;;;;;4950339;28;20031;-69
2021/09/30 11:54:17;;;;;;;10.18;2.58;;;;;;;;;;4950321;29;20093;-70
2021/09/30 11:56:45;;;;;;;12.43;2.42;;;;;;;;;;4954187;28;20074;-70
2021/09/30 11:59:11;;;;;;;11.95;3.00;;;;;;;;;;4954687;28;20031;-70
2021/09/30 12:01:47;;;;;;;17.30;3.00;;;;;;;;;;4955143;28;20034;-72
2021/09/30 12:04:28;;;;;;;13.00;2.92;;;;;;;;;;4951551;28;20514;-71
2021/09/30 12:06:55;;;;;;;11.53;2.83;;;;;;;;;;4953838;28;20063;-69
2021/09/30 12:09:21;;;;;;;15.40;2.97;;;;;;;;;;4946001;28;20497;-71
2021/09/30 12:11:55;;;;;;;8.93;3.10;;;;;;;;;;4955294;28;20046;-70
2021/09/30 12:14:21;;;;;;;12.23;2.80;;;;;;;;;;4944953;28;20400;-70
2021/09/30 12:17:00;;;;;;;13.40;2.47;;;;;;;;;;4954985;28;20031;-73
2021/09/30 12:19:29;;;;;;;11.43;2.50;;;;;;;;;;4948533;28;20024;-71
2021/09/30 12:21:56;;;;;;;12.25;2.83;;;;;;;;;;4952016;28;20038;-70
2021/09/30 12:24:24;;;;;;;8.48;2.53;;;;;;;;;;4950763;28;20433;-70
2021/09/30 12:26:50;;;;;;;9.82;2.45;;;;;;;;;;4949627;28;20110;-70
2021/09/30 12:29:17;;;;;;;13.23;2.03;;;;;;;;;;4953798;28;20618;-69
2021/09/30 12:31:43;;;;;;;14.88;2.72;;;;;;;;;;4953815;28;20032;-70
2021/09/30 12:34:25;;;;;;;10.30;2.92;;;;;;;;;;4950230;28;20486;-69
2021/09/30 12:36:51;;;;;;;15.18;2.50;;;;;;;;;;4953011;28;20074;-69
2021/09/30 12:39:25;;;;;;;12.00;2.17;;;;;;;;;;4951987;28;20067;-69
2021/09/30 12:41:51;;;;;;;9.18;2.38;;;;;;;;;;4953242;28;20111;-69
2021/09/30 12:44:17;;;;;;;13.77;2.78;;;;;;;;;;4950119;28;20453;-70
2021/09/30 12:46:52;;;;;;;11.43;2.22;;;;;;;;;;4953814;28;20325;-69
2021/09/30 12:49:19;;;;;;;16.95;2.53;;;;;;;;;;4954609;28;20020;-70
2021/09/30 12:51:46;;;;;;;14.93;2.70;;;;;;;;;;4952798;28;20031;-70
2021/09/30 12:54:12;;;;;;;12.10;2.50;;;;;;;;;;4951842;28;20185;-69
2021/09/30 12:56:39;;;;;;;10.55;2.17;;;;;;;;;;4954179;28;20111;-70
2021/09/30 12:59:12;;;;;;;9.02;1.80;;;;;;;;;;4953379;28;20019;-70
2021/09/30 13:01:38;;;;;;;11.70;2.08;;;;;;;;;;4954085;28;20035;-71
2021/09/30 13:04:04;;;;;;;10.88;2.38;;;;;;;;;;4949542;28;20090;-70
2021/09/30 13:06:30;;;;;;;7.30;1.65;;;;;;;;;;4936969;29;20023;-71
2021/09/30 13:08:56;;;;;;;8.75;1.88;;;;;;;;;;4953213;28;20421;-70
2021/09/30 13:11:30;;;;;;;11.93;1.90;;;;;;;;;;4952544;28;20505;-69
2021/09/30 13:14:15;;;;;;;8.13;2.00;;;;;;;;;;4952508;28;20027;-69
2021/09/30 13:16:42;;;;;;;9.90;1.95;;;;;;;;;;4946737;28;20168;-69
2021/09/30 13:19:08;;;;;;;8.60;1.88;;;;;;;;;;4952044;29;20398;-68
2021/09/30 13:21:52;;;;;;;7.97;1.77;;;;;;;;;;4952865;28;20034;-69
2021/09/30 13:24:18;;;;;;;8.02;1.80;;;;;;;;;;4939409;28;20257;-70
2021/09/30 13:26:44;;;;;;;11.20;2.13;;;;;;;;;;4951713;29;20070;-69
2021/09/30 13:29:11;;;;;;;14.00;2.10;;;;;;;;;;4951306;28;20031;-70
2021/09/30 13:31:37;;;;;;;14.48;2.17;;;;;;;;;;4946628;29;20050;-70
2021/09/30 13:34:03;;;;;;;15.95;1.77;;;;;;;;;;4952059;28;20035;-71
2021/09/30 13:36:31;;;;;;;8.38;1.70;;;;;;;;;;4954161;28;20400;-70
2021/09/30 13:38:57;;;;;;;9.88;1.67;;;;;;;;;;4953241;28;20035;-70
2021/09/30 13:41:23;;;;;;;14.43;2.28;;;;;;;;;;4953789;28;20513;-71
2021/09/30 13:43:49;;;;;;;11.73;1.70;;;;;;;;;;4953984;28;20094;-70
2021/09/30 13:46:15;;;;;;;7.53;1.52;;;;;;;;;;4949807;28;20561;-70
2021/09/30 13:48:41;;;;;;;7.28;1.45;;;;;;;;;;4950546;28;20129;-70
2021/09/30 13:51:07;;;;;;;6.90;1.60;;;;;;;;;;4951807;28;20043;-69
2021/09/30 13:53:33;;;;;;;9.10;2.05;;;;;;;;;;4951672;28;20027;-69
2021/09/30 13:55:59;;;;;;;10.52;1.88;;;;;;;;;;4950268;28;20027;-70
2021/09/30 13:58:26;;;;;;;8.95;1.52;;;;;;;;;;4953461;28;20027;-69
2021/09/30 14:00:52;;;;;;;6.70;1.60;;;;;;;;;;4950508;28;20027;-68
2021/09/30 14:03:18;;;;;;;8.93;1.38;;;;;;;;;;4944962;29;20019;-69
2021/09/30 14:05:44;;;;;;;8.52;1.95;;;;;;;;;;4948874;28;20031;-72
2021/09/30 14:08:12;;;;;;;14.00;1.70;;;;;;;;;;4952181;28;20155;-68
2021/09/30 14:10:38;;;;;;;9.68;3.17;;;;;;;;;;4953101;28;20057;-69
2021/09/30 14:13:04;;;;;;;10.27;1.73;;;;;;;;;;4952387;28;20107;-70
2021/09/30 14:15:30;;;;;;;11.52;2.00;;;;;;;;;;4949589;28;20031;-70
2021/09/30 14:17:56;;;;;;;6.55;2.03;;;;;;;;;;4952499;28;20019;-70
2021/09/30 14:20:22;;;;;;;10.02;1.77;;;;;;;;;;4946983;28;20086;-70
2021/09/30 14:22:48;;;;;;;10.68;1.65;;;;;;;;;;4949055;28;20031;-70
2021/09/30 14:25:15;;;;;;;17.17;1.98;;;;;;;;;;4948637;28;20031;-70
2021/09/30 14:27:41;;;;;;;7.93;1.92;;;;;;;;;;4951411;28;20142;-68
2021/09/30 14:30:08;;;;;;;6.50;1.13;;;;;;;;;;4951191;28;20023;-69
2021/09/30 14:32:34;;;;;;;9.85;1.75;;;;;;;;;;4950927;28;20054;-71
2021/09/30 14:35:00;;;;;;;12.93;1.63;;;;;;;;;;4947567;28;20043;-70
2021/09/30 14:37:27;;;;;;;9.20;1.45;;;;;;;;;;4952213;28;20055;-70
2021/09/30 14:39:53;;;;;;;10.43;1.73;;;;;;;;;;4950097;28;20035;-69
2021/09/30 14:42:19;;;;;;;9.23;1.50;;;;;;;;;;4951292;28;20030;-69
2021/09/30 14:44:46;;;;;;;9.20;1.50;;;;;;;;;;4953105;28;20034;-69
2021/09/30 14:47:12;;;;;;;10.60;1.42;;;;;;;;;;4949375;28;20716;-69
2021/09/30 14:49:39;;;;;;;11.93;1.48;;;;;;;;;;4950846;28;20042;-72
2021/09/30 14:52:09;;;;;;;10.95;1.73;;;;;;;;;;4955966;28;20390;-69
2021/09/30 14:54:36;;;;;;;8.77;1.25;;;;;;;;;;4952351;28;20043;-70
2021/09/30 14:57:02;;;;;;;6.65;0.90;;;;;;;;;;4958322;28;20045;-69
2021/09/30 14:59:28;;;;;;;12.00;2.33;;;;;;;;;;4952589;28;20023;-72
2021/09/30 15:01:54;;;;;;;8.80;1.25;;;;;;;;;;4954913;28;20074;-71
2021/09/30 15:04:20;;;;;;;6.55;1.65;;;;;;;;;;4952434;28;20551;-69
2021/09/30 15:06:46;;;;;;;10.40;1.85;;;;;;;;;;4947791;28;20113;-69
2021/09/30 15:09:12;;;;;;;9.38;1.58;;;;;;;;;;4951764;28;20286;-69
2021/09/30 15:11:38;;;;;;;12.55;1.88;;;;;;;;;;4952303;28;20027;-70
2021/09/30 15:14:05;;;;;;;12.07;2.08;;;;;;;;;;4957935;28;20497;-69
2021/09/30 15:16:33;;;;;;;9.80;1.25;;;;;;;;;;4950616;28;20034;-70
2021/09/30 15:19:08;;;;;;;9.88;1.48;;;;;;;;;;4951481;28;20046;-68
2021/09/30 15:21:35;;;;;;;9.38;1.73;;;;;;;;;;4952057;28;20051;-69
2021/09/30 15:24:05;;;;;;;10.02;2.00;;;;;;;;;;4951280;28;20031;-68
2021/09/30 15:26:32;;;;;;;6.45;1.75;;;;;;;;;;4948542;28;20028;-68
2021/09/30 15:28:59;;;;;;;13.35;2.00;;;;;;;;;;4962776;28;20058;-69
2021/09/30 15:31:26;;;;;;;13.57;1.70;;;;;;;;;;4956226;28;20286;-69
2021/09/30 15:33:53;;;;;;;7.80;1.58;;;;;;;;;;4960805;28;20050;-69
2021/09/30 15:36:19;;;;;;;18.67;2.28;;;;;;;;;;4952345;28;20483;-70
2021/09/30 15:38:46;;;;;;;10.10;1.52;;;;;;;;;;4959226;28;20039;-70
2021/09/30 15:41:12;;;;;;;8.30;1.67;;;;;;;;;;4955122;28;20087;-70
2021/09/30 15:43:39;;;;;;;10.80;2.03;;;;;;;;;;4958711;28;20020;-69
2021/09/30 15:46:05;;;;;;;10.45;1.63;;;;;;;;;;4959133;28;20030;-68
2021/09/30 15:48:32;;;;;;;10.52;1.60;;;;;;;;;;4956195;28;20073;-68
2021/09/30 15:50:59;;;;;;;11.75;1.55;;;;;;;;;;4962000;28;20030;-71
2021/09/30 15:53:25;;;;;;;13.32;1.83;;;;;;;;;;4955506;28;20130;-69
2021/09/30 15:55:52;;;;;;;13.35;1.58;;;;;;;;;;4952461;28;20034;-68
2021/09/30 15:58:21;;;;;;;9.95;1.92;;;;;;;;;;4954377;28;21347;-69
2021/09/30 16:00:48;;;;;;;11.55;2.08;;;;;;;;;;4952541;28;20023;-69
2021/09/30 16:03:14;;;;;;;8.90;1.67;;;;;;;;;;4953248;28;20509;-69
2021/09/30 16:05:41;;;;;;;12.63;2.10;;;;;;;;;;4952614;28;20046;-68
2021/09/30 16:08:07;;;;;;;8.82;1.40;;;;;;;;;;4953214;28;20031;-69
2021/09/30 16:10:34;;;;;;;10.95;1.70;;;;;;;;;;4953154;28;20035;-68
2021/09/30 16:13:00;;;;;;;12.98;1.75;;;;;;;;;;4953193;28;20035;-68
2021/09/30 16:15:26;;;;;;;9.02;1.50;;;;;;;;;;4950619;28;20023;-69
2021/09/30 16:17:52;;;;;;;8.25;1.48;;;;;;;;;;4951133;28;20126;-68
2021/09/30 16:20:18;;;;;;;6.88;1.27;;;;;;;;;;4949102;28;20076;-69
2021/09/30 16:22:44;;;;;;;11.27;2.22;;;;;;;;;;4953247;28;20027;-68
2021/09/30 16:25:10;;;;;;;7.97;1.20;;;;;;;;;;4951102;28;20416;-69
2021/09/30 16:27:37;;;;;;;17.15;1.80;;;;;;;;;;4949329;28;20055;-68
2021/09/30 16:30:05;;;;;;;5.68;1.60;;;;;;;;;;4946488;28;20402;-69
2021/09/30 16:32:31;;;;;;;9.25;1.50;;;;;;;;;;4948516;28;20035;-69
2021/09/30 16:34:57;;;;;;;8.05;1.67;;;;;;;;;;4945184;28;20027;-69
2021/09/30 16:37:23;;;;;;;14.43;1.70;;;;;;;;;;4951428;29;20114;-68
2021/09/30 16:39:49;;;;;;;12.43;2.35;;;;;;;;;;4949839;28;20438;-69
2021/09/30 16:42:15;;;;;;;11.55;1.88;;;;;;;;;;4951027;28;20019;-68
2021/09/30 16:44:42;;;;;;;13.02;1.88;;;;;;;;;;4950447;28;20420;-68
2021/09/30 16:47:08;;;;;;;17.98;2.47;;;;;;;;;;4950782;28;20125;-69
2021/09/30 16:49:34;;;;;;;9.98;1.55;;;;;;;;;;4953018;28;20027;-69
2021/09/30 16:52:00;;;;;;;11.65;1.90;;;;;;;;;;4947920;28;20035;-69
2021/09/30 16:54:26;;;;;;;9.90;2.05;;;;;;;;;;4941907;28;20423;-69
2021/09/30 16:56:52;;;;;;;7.10;1.80;;;;;;;;;;4948730;28;20027;-69
2021/09/30 16:59:18;;;;;;;11.93;2.88;;;;;;;;;;4918512;23;1102730;-82
2021/09/30 17:01:45;;;;;;;7.93;1.70;;;;;;;;;;4929546;29;20134;-82
2021/09/30 17:04:11;;;;;;;8.85;2.40;;;;;;;;;;4926182;29;20035;-82
2021/09/30 17:06:38;;;;;;;9.05;2.10;;;;;;;;;;4928390;29;20039;-83
2021/09/30 17:09:05;;;;;;;11.32;2.78;;;;;;;;;;4931643;29;20023;-82
2021/09/30 17:11:31;;;;;;;12.82;3.42;;;;;;;;;;4931179;29;20031;-82
2021/09/30 17:13:57;;;;;;;12.00;3.13;;;;;;;;;;4936728;28;20448;-83
2021/09/30 17:16:23;;;;;;;15.38;2.97;;;;;;;;;;4935807;29;20047;-82
2021/09/30 17:18:49;;;;;;;14.45;3.30;;;;;;;;;;4933886;29;20050;-82
2021/09/30 17:21:17;;;;;;;9.60;1.48;;;;;;;;;;4931813;28;20055;-83
2021/09/30 17:23:43;;;;;;;10.18;1.67;;;;;;;;;;4935237;29;20034;-82
2021/09/30 17:26:09;;;;;;;9.20;2.08;;;;;;;;;;4936221;29;20058;-82
2021/09/30 17:28:36;;;;;;;12.25;1.90;;;;;;;;;;4935275;29;20028;-82
2021/09/30 17:31:02;;;;;;;9.00;1.55;;;;;;;;;;4934713;28;20051;-82
2021/09/30 17:33:28;;;;;;;10.27;1.50;;;;;;;;;;4935520;29;20027;-82
2021/09/30 17:35:55;;;;;;;10.25;1.73;;;;;;;;;;4927902;29;20099;-82